Terminal Aerodrome Forecast
Issued by NWS

Home | Current Version | Previous Version | Graphics & Text | Print | Product List | Glossary On
Versions: 1 2 3 4 5 6 7 8 9 10 11 12 13 14 15 16 17 18 19 20 21 22 23 24 25 26 27 28 29 30 31 32 33 34 35
000
FTUS45 KGGW 252300
TAFOLF
TAF
KOLF 252327Z 2600/2624 36013KT P6SM BKN014 OVC040
     FM260300 35010KT P6SM OVC025
     FM260800 VRB05KT 6SM BR OVC020
     FM261300 VRB03KT 6SM BR OVC015=

USA.gov is the U.S. government's official web portal to all federal, state and local government web resources and services.